Terminal Aerodrome Forecast
Issued by NWS Wilmington, OH

Current Version | Previous Version | Graphics & Text | Print | Product List | Glossary Off
Versions: 1 2 3 4 5 6 7 8 9 10 11 12 13 14 15 16 17 18 19 20 21 22 23 24 25

000
FTUS41 KILN 021200 AAA
TAFILN
TAF AMD
KILN 021231Z 0213/0312 33009KT 5SM -SHRA BR VCTS OVC040CB
     FM021500 23008KT P6SM VCSH BKN040
     FM022000 26008KT P6SM SCT040
     FM030000 20005KT P6SM SCT250
     FM030800 VRB03KT 2SM BR SCT025=

USA.gov is the U.S. government's official web portal to all federal, state and local government web resources and services.